<?xml version="1.0" encoding="UTF-8" standalone="no" ?>
<gpx xmlns="http://www.topografix.com/GPX/1/1" xmlns:xsi="http://www.w3.org/2001/XMLSchema-instance" xsi:schemaLocation="http://www.topografix.com/GPX/1/1 http://www.topografix.com/GPX/1/1/gpx.xsd" version="1.1" creator="VisuGPX - https://www.visugpx.com">
  <metadata>
    <name>Soum Couy par Barlagne</name>
    <desc><![CDATA[Montée : Du parking d%u2019Anéou, descendre aux cabane de Hounts de Gabes pour traverser les ruisseaux grâce aux deux ponts. Se diriger NW pour monter au col de l%u2019Iou (2194m). Pour cela on passe à côté des cabanes de Sénescau (1812m), un peu au S du point 2087 et au N du point 2116.
Du col gravir l%u2019arête à l%u2019ENE tout d%u2019abord proche du fil de celle ci puis, après un petit replat, on pourra contourner quelques rochers par la droite (côté S) et rejoindre la face sous le sommet que l%u2019on remonte facilement à ski.
Descente : Rejoindre le col de l%u2019Iou par le même itinéraire, puis la traversée sous le sommet jusqu%u2019au point 2116. A partir de là bifurquer légèrement à droite pour se diriger vers le point 1927 et rejoindre les cabanes de Hounts de Gabes sans passer par la cabane de Sénescau.]]></desc>
  </metadata>
  <trk>
    <name><![CDATA[Soum Couy]]></name>
    <desc><![CDATA[No llega a cima. Viento muy fuerte y frío
Partiendo desde la parte alta de la estación de Arette y subiendo por la pisa azul "Boulevard"
Muy adecuada para iniciacion]]></desc>
    <trkseg>
      <trkpt lat="42.97455" lon="-0.74359">
        <ele>1690.6</ele>
        <time>2008-04-13T07:15:30Z</time>
      </trkpt>
      <trkpt lat="42.97455" lon="-0.74362">
        <ele>1693</ele>
        <time>2008-04-13T07:16:08Z</time>
      </trkpt>
      <trkpt lat="42.97448" lon="-0.74364">
        <ele>1694</ele>
        <time>2008-04-13T07:17:05Z</time>
      </trkpt>
      <trkpt lat="42.9745" lon="-0.74377">
        <ele>1694.9</ele>
        <time>2008-04-13T07:17:41Z</time>
      </trkpt>
      <trkpt lat="42.97437" lon="-0.74396">
        <ele>1697.3</ele>
        <time>2008-04-13T07:18:05Z</time>
      </trkpt>
      <trkpt lat="42.97431" lon="-0.74394">
        <ele>1696.9</ele>
        <time>2008-04-13T07:18:20Z</time>
      </trkpt>
      <trkpt lat="42.97431" lon="-0.74392">
        <ele>1697.3</ele>
        <time>2008-04-13T07:18:22Z</time>
      </trkpt>
      <trkpt lat="42.9742" lon="-0.74385">
        <ele>1697.8</ele>
        <time>2008-04-13T07:18:38Z</time>
      </trkpt>
      <trkpt lat="42.97416" lon="-0.74385">
        <ele>1701.2</ele>
        <time>2008-04-13T07:18:44Z</time>
      </trkpt>
      <trkpt lat="42.97392" lon="-0.74377">
        <ele>1700.2</ele>
        <time>2008-04-13T07:19:14Z</time>
      </trkpt>
      <trkpt lat="42.97384" lon="-0.7437">
        <ele>1700.7</ele>
        <time>2008-04-13T07:19:28Z</time>
      </trkpt>
      <trkpt lat="42.97382" lon="-0.74359">
        <ele>1701.2</ele>
        <time>2008-04-13T07:19:40Z</time>
      </trkpt>
      <trkpt lat="42.97382" lon="-0.74351">
        <ele>1702.2</ele>
        <time>2008-04-13T07:19:49Z</time>
      </trkpt>
      <trkpt lat="42.97377" lon="-0.74334">
        <ele>1704.1</ele>
        <time>2008-04-13T07:20:04Z</time>
      </trkpt>
      <trkpt lat="42.97371" lon="-0.74319">
        <ele>1701.2</ele>
        <time>2008-04-13T07:20:21Z</time>
      </trkpt>
      <trkpt lat="42.97369" lon="-0.74308">
        <ele>1701.7</ele>
        <time>2008-04-13T07:20:38Z</time>
      </trkpt>
      <trkpt lat="42.97371" lon="-0.74306">
        <ele>1701.7</ele>
        <time>2008-04-13T07:20:40Z</time>
      </trkpt>
      <trkpt lat="42.97377" lon="-0.74278">
        <ele>1701.7</ele>
        <time>2008-04-13T07:22:22Z</time>
      </trkpt>
      <trkpt lat="42.97377" lon="-0.74239">
        <ele>1706</ele>
        <time>2008-04-13T07:23:23Z</time>
      </trkpt>
      <trkpt lat="42.97375" lon="-0.74239">
        <ele>1705.5</ele>
        <time>2008-04-13T07:23:34Z</time>
      </trkpt>
      <trkpt lat="42.97377" lon="-0.74231">
        <ele>1705</ele>
        <time>2008-04-13T07:23:49Z</time>
      </trkpt>
      <trkpt lat="42.97375" lon="-0.74214">
        <ele>1704.6</ele>
        <time>2008-04-13T07:24:17Z</time>
      </trkpt>
      <trkpt lat="42.97367" lon="-0.74186">
        <ele>1705</ele>
        <time>2008-04-13T07:24:36Z</time>
      </trkpt>
      <trkpt lat="42.97365" lon="-0.74158">
        <ele>1706</ele>
        <time>2008-04-13T07:24:56Z</time>
      </trkpt>
      <trkpt lat="42.97365" lon="-0.74134">
        <ele>1707.9</ele>
        <time>2008-04-13T07:25:13Z</time>
      </trkpt>
      <trkpt lat="42.97356" lon="-0.74068">
        <ele>1713.7</ele>
        <time>2008-04-13T07:26:13Z</time>
      </trkpt>
      <trkpt lat="42.97354" lon="-0.74063">
        <ele>1715.6</ele>
        <time>2008-04-13T07:26:17Z</time>
      </trkpt>
      <trkpt lat="42.97352" lon="-0.74048">
        <ele>1715.1</ele>
        <time>2008-04-13T07:26:34Z</time>
      </trkpt>
      <trkpt lat="42.9735" lon="-0.74053">
        <ele>1712.7</ele>
        <time>2008-04-13T07:28:31Z</time>
      </trkpt>
      <trkpt lat="42.97341" lon="-0.74033">
        <ele>1714.2</ele>
        <time>2008-04-13T07:30:13Z</time>
      </trkpt>
      <trkpt lat="42.9733" lon="-0.74025">
        <ele>1717.1</ele>
        <time>2008-04-13T07:30:31Z</time>
      </trkpt>
      <trkpt lat="42.97319" lon="-0.74025">
        <ele>1719.9</ele>
        <time>2008-04-13T07:30:46Z</time>
      </trkpt>
      <trkpt lat="42.97302" lon="-0.74029">
        <ele>1721.4</ele>
        <time>2008-04-13T07:31:17Z</time>
      </trkpt>
      <trkpt lat="42.97285" lon="-0.74029">
        <ele>1725.7</ele>
        <time>2008-04-13T07:31:41Z</time>
      </trkpt>
      <trkpt lat="42.97268" lon="-0.74025">
        <ele>1732.4</ele>
        <time>2008-04-13T07:32:07Z</time>
      </trkpt>
      <trkpt lat="42.97234" lon="-0.74023">
        <ele>1730</ele>
        <time>2008-04-13T07:32:54Z</time>
      </trkpt>
      <trkpt lat="42.9721" lon="-0.74027">
        <ele>1730.5</ele>
        <time>2008-04-13T07:33:30Z</time>
      </trkpt>
      <trkpt lat="42.9718" lon="-0.74027">
        <ele>1732.4</ele>
        <time>2008-04-13T07:34:02Z</time>
      </trkpt>
      <trkpt lat="42.97167" lon="-0.74031">
        <ele>1732.9</ele>
        <time>2008-04-13T07:34:19Z</time>
      </trkpt>
      <trkpt lat="42.97146" lon="-0.74031">
        <ele>1735.3</ele>
        <time>2008-04-13T07:34:45Z</time>
      </trkpt>
      <trkpt lat="42.97118" lon="-0.74027">
        <ele>1735.8</ele>
        <time>2008-04-13T07:35:16Z</time>
      </trkpt>
      <trkpt lat="42.97105" lon="-0.74023">
        <ele>1737.7</ele>
        <time>2008-04-13T07:35:34Z</time>
      </trkpt>
      <trkpt lat="42.9709" lon="-0.74014">
        <ele>1744</ele>
        <time>2008-04-13T07:36:05Z</time>
      </trkpt>
      <trkpt lat="42.97083" lon="-0.74008">
        <ele>1745.9</ele>
        <time>2008-04-13T07:36:21Z</time>
      </trkpt>
      <trkpt lat="42.97077" lon="-0.74005">
        <ele>1748.3</ele>
        <time>2008-04-13T07:36:36Z</time>
      </trkpt>
      <trkpt lat="42.9706" lon="-0.73971">
        <ele>1756</ele>
        <time>2008-04-13T07:37:33Z</time>
      </trkpt>
      <trkpt lat="42.97049" lon="-0.73958">
        <ele>1756.5</ele>
        <time>2008-04-13T07:37:48Z</time>
      </trkpt>
      <trkpt lat="42.97041" lon="-0.73956">
        <ele>1759.8</ele>
        <time>2008-04-13T07:38:00Z</time>
      </trkpt>
      <trkpt lat="42.97036" lon="-0.73958">
        <ele>1759.8</ele>
        <time>2008-04-13T07:38:06Z</time>
      </trkpt>
      <trkpt lat="42.97028" lon="-0.73967">
        <ele>1763.2</ele>
        <time>2008-04-13T07:38:17Z</time>
      </trkpt>
      <trkpt lat="42.97023" lon="-0.73969">
        <ele>1760.8</ele>
        <time>2008-04-13T07:38:23Z</time>
      </trkpt>
      <trkpt lat="42.97004" lon="-0.7401">
        <ele>1759.4</ele>
        <time>2008-04-13T07:39:00Z</time>
      </trkpt>
      <trkpt lat="42.96985" lon="-0.74029">
        <ele>1760.8</ele>
        <time>2008-04-13T07:39:39Z</time>
      </trkpt>
      <trkpt lat="42.96944" lon="-0.7404">
        <ele>1762.2</ele>
        <time>2008-04-13T07:40:25Z</time>
      </trkpt>
      <trkpt lat="42.96912" lon="-0.74038">
        <ele>1765.6</ele>
        <time>2008-04-13T07:41:04Z</time>
      </trkpt>
      <trkpt lat="42.96907" lon="-0.74033">
        <ele>1767</ele>
        <time>2008-04-13T07:41:09Z</time>
      </trkpt>
      <trkpt lat="42.96888" lon="-0.74029">
        <ele>1767</ele>
        <time>2008-04-13T07:41:37Z</time>
      </trkpt>
      <trkpt lat="42.96862" lon="-0.74031">
        <ele>1773.3</ele>
        <time>2008-04-13T07:42:30Z</time>
      </trkpt>
      <trkpt lat="42.96858" lon="-0.74029">
        <ele>1777.1</ele>
        <time>2008-04-13T07:42:39Z</time>
      </trkpt>
      <trkpt lat="42.96837" lon="-0.74027">
        <ele>1781.9</ele>
        <time>2008-04-13T07:43:13Z</time>
      </trkpt>
      <trkpt lat="42.96837" lon="-0.74029">
        <ele>1780.5</ele>
        <time>2008-04-13T07:43:15Z</time>
      </trkpt>
      <trkpt lat="42.9683" lon="-0.74027">
        <ele>1780.5</ele>
        <time>2008-04-13T07:43:24Z</time>
      </trkpt>
      <trkpt lat="42.96824" lon="-0.74027">
        <ele>1781.9</ele>
        <time>2008-04-13T07:43:32Z</time>
      </trkpt>
      <trkpt lat="42.96819" lon="-0.74018">
        <ele>1781.9</ele>
        <time>2008-04-13T07:43:39Z</time>
      </trkpt>
      <trkpt lat="42.96804" lon="-0.74012">
        <ele>1779.1</ele>
        <time>2008-04-13T07:43:57Z</time>
      </trkpt>
      <trkpt lat="42.96804" lon="-0.7401">
        <ele>1779.5</ele>
        <time>2008-04-13T07:43:58Z</time>
      </trkpt>
      <trkpt lat="42.96785" lon="-0.7401">
        <ele>1784.3</ele>
        <time>2008-04-13T07:44:25Z</time>
      </trkpt>
      <trkpt lat="42.96783" lon="-0.74008">
        <ele>1785.8</ele>
        <time>2008-04-13T07:44:32Z</time>
      </trkpt>
      <trkpt lat="42.96774" lon="-0.74005">
        <ele>1788.2</ele>
        <time>2008-04-13T07:44:45Z</time>
      </trkpt>
      <trkpt lat="42.96762" lon="-0.73999">
        <ele>1788.7</ele>
        <time>2008-04-13T07:45:11Z</time>
      </trkpt>
      <trkpt lat="42.96757" lon="-0.74001">
        <ele>1789.2</ele>
        <time>2008-04-13T07:45:25Z</time>
      </trkpt>
      <trkpt lat="42.96747" lon="-0.74001">
        <ele>1794.9</ele>
        <time>2008-04-13T07:45:45Z</time>
      </trkpt>
      <trkpt lat="42.96732" lon="-0.73997">
        <ele>1796.8</ele>
        <time>2008-04-13T07:46:16Z</time>
      </trkpt>
      <trkpt lat="42.96721" lon="-0.73988">
        <ele>1796.8</ele>
        <time>2008-04-13T07:46:56Z</time>
      </trkpt>
      <trkpt lat="42.96699" lon="-0.73978">
        <ele>1801.2</ele>
        <time>2008-04-13T07:47:26Z</time>
      </trkpt>
      <trkpt lat="42.96682" lon="-0.73978">
        <ele>1798.8</ele>
        <time>2008-04-13T07:47:48Z</time>
      </trkpt>
      <trkpt lat="42.96674" lon="-0.73982">
        <ele>1800.2</ele>
        <time>2008-04-13T07:48:00Z</time>
      </trkpt>
      <trkpt lat="42.96663" lon="-0.7399">
        <ele>1803.1</ele>
        <time>2008-04-13T07:48:15Z</time>
      </trkpt>
      <trkpt lat="42.96646" lon="-0.74008">
        <ele>1810.8</ele>
        <time>2008-04-13T07:48:53Z</time>
      </trkpt>
      <trkpt lat="42.96639" lon="-0.74016">
        <ele>1811.7</ele>
        <time>2008-04-13T07:49:08Z</time>
      </trkpt>
      <trkpt lat="42.96631" lon="-0.7402">
        <ele>1811.3</ele>
        <time>2008-04-13T07:49:27Z</time>
      </trkpt>
      <trkpt lat="42.96626" lon="-0.74025">
        <ele>1812.2</ele>
        <time>2008-04-13T07:49:38Z</time>
      </trkpt>
      <trkpt lat="42.96616" lon="-0.74031">
        <ele>1816.1</ele>
        <time>2008-04-13T07:50:02Z</time>
      </trkpt>
      <trkpt lat="42.96611" lon="-0.74035">
        <ele>1819</ele>
        <time>2008-04-13T07:50:10Z</time>
      </trkpt>
      <trkpt lat="42.96603" lon="-0.7404">
        <ele>1821.4</ele>
        <time>2008-04-13T07:50:25Z</time>
      </trkpt>
      <trkpt lat="42.96594" lon="-0.74048">
        <ele>1825.7</ele>
        <time>2008-04-13T07:50:44Z</time>
      </trkpt>
      <trkpt lat="42.96592" lon="-0.74048">
        <ele>1822.8</ele>
        <time>2008-04-13T07:50:48Z</time>
      </trkpt>
      <trkpt lat="42.96541" lon="-0.74091">
        <ele>1830</ele>
        <time>2008-04-13T07:53:02Z</time>
      </trkpt>
      <trkpt lat="42.96538" lon="-0.74096">
        <ele>1831.9</ele>
        <time>2008-04-13T07:53:08Z</time>
      </trkpt>
      <trkpt lat="42.96534" lon="-0.74098">
        <ele>1832.9</ele>
        <time>2008-04-13T07:53:13Z</time>
      </trkpt>
      <trkpt lat="42.96526" lon="-0.74106">
        <ele>1836.3</ele>
        <time>2008-04-13T07:53:25Z</time>
      </trkpt>
      <trkpt lat="42.96517" lon="-0.74111">
        <ele>1833.4</ele>
        <time>2008-04-13T07:53:38Z</time>
      </trkpt>
      <trkpt lat="42.96504" lon="-0.74121">
        <ele>1832.9</ele>
        <time>2008-04-13T07:53:54Z</time>
      </trkpt>
      <trkpt lat="42.96463" lon="-0.74143">
        <ele>1836.3</ele>
        <time>2008-04-13T07:54:49Z</time>
      </trkpt>
      <trkpt lat="42.9645" lon="-0.74147">
        <ele>1836.7</ele>
        <time>2008-04-13T07:55:06Z</time>
      </trkpt>
      <trkpt lat="42.96427" lon="-0.74149">
        <ele>1840.1</ele>
        <time>2008-04-13T07:55:40Z</time>
      </trkpt>
      <trkpt lat="42.96399" lon="-0.74166">
        <ele>1845.9</ele>
        <time>2008-04-13T07:56:19Z</time>
      </trkpt>
      <trkpt lat="42.96388" lon="-0.74179">
        <ele>1849.7</ele>
        <time>2008-04-13T07:56:45Z</time>
      </trkpt>
      <trkpt lat="42.96384" lon="-0.7419">
        <ele>1851.2</ele>
        <time>2008-04-13T07:56:58Z</time>
      </trkpt>
      <trkpt lat="42.96373" lon="-0.74196">
        <ele>1852.1</ele>
        <time>2008-04-13T07:57:20Z</time>
      </trkpt>
      <trkpt lat="42.96369" lon="-0.74201">
        <ele>1855</ele>
        <time>2008-04-13T07:57:28Z</time>
      </trkpt>
      <trkpt lat="42.96367" lon="-0.74209">
        <ele>1857.4</ele>
        <time>2008-04-13T07:57:39Z</time>
      </trkpt>
      <trkpt lat="42.96365" lon="-0.74209">
        <ele>1854.5</ele>
        <time>2008-04-13T07:57:41Z</time>
      </trkpt>
      <trkpt lat="42.96365" lon="-0.74211">
        <ele>1856</ele>
        <time>2008-04-13T07:57:43Z</time>
      </trkpt>
      <trkpt lat="42.96362" lon="-0.74211">
        <ele>1860.3</ele>
        <time>2008-04-13T07:57:46Z</time>
      </trkpt>
      <trkpt lat="42.96362" lon="-0.74214">
        <ele>1857.4</ele>
        <time>2008-04-13T07:57:48Z</time>
      </trkpt>
      <trkpt lat="42.9636" lon="-0.74214">
        <ele>1860.8</ele>
        <time>2008-04-13T07:57:52Z</time>
      </trkpt>
      <trkpt lat="42.9636" lon="-0.7422">
        <ele>1858.4</ele>
        <time>2008-04-13T07:57:59Z</time>
      </trkpt>
      <trkpt lat="42.96358" lon="-0.74222">
        <ele>1856.4</ele>
        <time>2008-04-13T07:58:01Z</time>
      </trkpt>
      <trkpt lat="42.96356" lon="-0.74235">
        <ele>1860.3</ele>
        <time>2008-04-13T07:58:31Z</time>
      </trkpt>
      <trkpt lat="42.96352" lon="-0.74246">
        <ele>1863.7</ele>
        <time>2008-04-13T07:58:46Z</time>
      </trkpt>
      <trkpt lat="42.9635" lon="-0.74256">
        <ele>1863.7</ele>
        <time>2008-04-13T07:59:00Z</time>
      </trkpt>
      <trkpt lat="42.96347" lon="-0.74259">
        <ele>1864.1</ele>
        <time>2008-04-13T07:59:01Z</time>
      </trkpt>
      <trkpt lat="42.96341" lon="-0.74287">
        <ele>1865.6</ele>
        <time>2008-04-13T07:59:35Z</time>
      </trkpt>
      <trkpt lat="42.96337" lon="-0.74297">
        <ele>1867</ele>
        <time>2008-04-13T07:59:51Z</time>
      </trkpt>
      <trkpt lat="42.96337" lon="-0.74304">
        <ele>1870.4</ele>
        <time>2008-04-13T07:59:59Z</time>
      </trkpt>
      <trkpt lat="42.96328" lon="-0.74323">
        <ele>1871.8</ele>
        <time>2008-04-13T08:00:25Z</time>
      </trkpt>
      <trkpt lat="42.96322" lon="-0.74334">
        <ele>1875.7</ele>
        <time>2008-04-13T08:00:44Z</time>
      </trkpt>
      <trkpt lat="42.96315" lon="-0.74334">
        <ele>1878.6</ele>
        <time>2008-04-13T08:01:06Z</time>
      </trkpt>
      <trkpt lat="42.96317" lon="-0.74332">
        <ele>1877.6</ele>
        <time>2008-04-13T08:01:42Z</time>
      </trkpt>
      <trkpt lat="42.96317" lon="-0.74329">
        <ele>1876.6</ele>
        <time>2008-04-13T08:01:51Z</time>
      </trkpt>
      <trkpt lat="42.96313" lon="-0.74327">
        <ele>1879</ele>
        <time>2008-04-13T08:02:04Z</time>
      </trkpt>
      <trkpt lat="42.96307" lon="-0.74319">
        <ele>1881.9</ele>
        <time>2008-04-13T08:02:16Z</time>
      </trkpt>
      <trkpt lat="42.96298" lon="-0.74291">
        <ele>1887.7</ele>
        <time>2008-04-13T08:02:44Z</time>
      </trkpt>
      <trkpt lat="42.96298" lon="-0.74287">
        <ele>1886.2</ele>
        <time>2008-04-13T08:02:47Z</time>
      </trkpt>
      <trkpt lat="42.96292" lon="-0.74274">
        <ele>1888.6</ele>
        <time>2008-04-13T08:03:02Z</time>
      </trkpt>
      <trkpt lat="42.96287" lon="-0.74254">
        <ele>1889.6</ele>
        <time>2008-04-13T08:03:21Z</time>
      </trkpt>
      <trkpt lat="42.96287" lon="-0.74196">
        <ele>1893.5</ele>
        <time>2008-04-13T08:04:18Z</time>
      </trkpt>
      <trkpt lat="42.96283" lon="-0.74166">
        <ele>1897.3</ele>
        <time>2008-04-13T08:04:50Z</time>
      </trkpt>
      <trkpt lat="42.96283" lon="-0.74158">
        <ele>1900.7</ele>
        <time>2008-04-13T08:04:59Z</time>
      </trkpt>
      <trkpt lat="42.96281" lon="-0.74156">
        <ele>1904</ele>
        <time>2008-04-13T08:05:01Z</time>
      </trkpt>
      <trkpt lat="42.96281" lon="-0.74126">
        <ele>1901.6</ele>
        <time>2008-04-13T08:05:32Z</time>
      </trkpt>
      <trkpt lat="42.96274" lon="-0.74102">
        <ele>1905.5</ele>
        <time>2008-04-13T08:05:55Z</time>
      </trkpt>
      <trkpt lat="42.96274" lon="-0.74098">
        <ele>1907.9</ele>
        <time>2008-04-13T08:06:00Z</time>
      </trkpt>
      <trkpt lat="42.96268" lon="-0.74074">
        <ele>1913.2</ele>
        <time>2008-04-13T08:06:32Z</time>
      </trkpt>
      <trkpt lat="42.96268" lon="-0.74059">
        <ele>1912.7</ele>
        <time>2008-04-13T08:06:56Z</time>
      </trkpt>
      <trkpt lat="42.96266" lon="-0.74048">
        <ele>1914.6</ele>
        <time>2008-04-13T08:07:09Z</time>
      </trkpt>
      <trkpt lat="42.96266" lon="-0.7404">
        <ele>1915.1</ele>
        <time>2008-04-13T08:07:23Z</time>
      </trkpt>
      <trkpt lat="42.96262" lon="-0.74016">
        <ele>1918</ele>
        <time>2008-04-13T08:07:52Z</time>
      </trkpt>
      <trkpt lat="42.96262" lon="-0.7401">
        <ele>1918.4</ele>
        <time>2008-04-13T08:08:00Z</time>
      </trkpt>
      <trkpt lat="42.96253" lon="-0.7398">
        <ele>1921.8</ele>
        <time>2008-04-13T08:08:38Z</time>
      </trkpt>
      <trkpt lat="42.96249" lon="-0.73956">
        <ele>1922.8</ele>
        <time>2008-04-13T08:09:03Z</time>
      </trkpt>
      <trkpt lat="42.96244" lon="-0.73945">
        <ele>1923.3</ele>
        <time>2008-04-13T08:09:12Z</time>
      </trkpt>
      <trkpt lat="42.96244" lon="-0.73941">
        <ele>1928.1</ele>
        <time>2008-04-13T08:09:16Z</time>
      </trkpt>
      <trkpt lat="42.96229" lon="-0.73892">
        <ele>1927.6</ele>
        <time>2008-04-13T08:10:07Z</time>
      </trkpt>
      <trkpt lat="42.96214" lon="-0.73875">
        <ele>1928.5</ele>
        <time>2008-04-13T08:10:49Z</time>
      </trkpt>
      <trkpt lat="42.96208" lon="-0.73847">
        <ele>1934.8</ele>
        <time>2008-04-13T08:11:36Z</time>
      </trkpt>
      <trkpt lat="42.96206" lon="-0.73832">
        <ele>1938.6</ele>
        <time>2008-04-13T08:12:01Z</time>
      </trkpt>
      <trkpt lat="42.96206" lon="-0.73821">
        <ele>1945.8</ele>
        <time>2008-04-13T08:12:14Z</time>
      </trkpt>
      <trkpt lat="42.96204" lon="-0.73819">
        <ele>1942</ele>
        <time>2008-04-13T08:12:18Z</time>
      </trkpt>
      <trkpt lat="42.96204" lon="-0.73814">
        <ele>1941</ele>
        <time>2008-04-13T08:12:26Z</time>
      </trkpt>
      <trkpt lat="42.96199" lon="-0.73804">
        <ele>1942.5</ele>
        <time>2008-04-13T08:12:41Z</time>
      </trkpt>
      <trkpt lat="42.96195" lon="-0.73776">
        <ele>1943</ele>
        <time>2008-04-13T08:13:15Z</time>
      </trkpt>
      <trkpt lat="42.96195" lon="-0.73767">
        <ele>1942</ele>
        <time>2008-04-13T08:13:30Z</time>
      </trkpt>
      <trkpt lat="42.96191" lon="-0.73744">
        <ele>1948.2</ele>
        <time>2008-04-13T08:14:01Z</time>
      </trkpt>
      <trkpt lat="42.96191" lon="-0.73735">
        <ele>1947.8</ele>
        <time>2008-04-13T08:14:12Z</time>
      </trkpt>
      <trkpt lat="42.96193" lon="-0.73729">
        <ele>1947.8</ele>
        <time>2008-04-13T08:14:16Z</time>
      </trkpt>
      <trkpt lat="42.96195" lon="-0.73726">
        <ele>1949.7</ele>
        <time>2008-04-13T08:14:19Z</time>
      </trkpt>
      <trkpt lat="42.96197" lon="-0.73718">
        <ele>1953.1</ele>
        <time>2008-04-13T08:14:27Z</time>
      </trkpt>
      <trkpt lat="42.96199" lon="-0.73718">
        <ele>1952.6</ele>
        <time>2008-04-13T08:14:28Z</time>
      </trkpt>
      <trkpt lat="42.96204" lon="-0.73707">
        <ele>1959.8</ele>
        <time>2008-04-13T08:14:38Z</time>
      </trkpt>
      <trkpt lat="42.96206" lon="-0.73705">
        <ele>1960.7</ele>
        <time>2008-04-13T08:14:40Z</time>
      </trkpt>
      <trkpt lat="42.96206" lon="-0.73696">
        <ele>1956.9</ele>
        <time>2008-04-13T08:14:48Z</time>
      </trkpt>
      <trkpt lat="42.96204" lon="-0.73694">
        <ele>1955.5</ele>
        <time>2008-04-13T08:15:39Z</time>
      </trkpt>
      <trkpt lat="42.96204" lon="-0.73688">
        <ele>1955.9</ele>
        <time>2008-04-13T08:16:06Z</time>
      </trkpt>
      <trkpt lat="42.96202" lon="-0.73686">
        <ele>1956.4</ele>
        <time>2008-04-13T08:16:08Z</time>
      </trkpt>
      <trkpt lat="42.96202" lon="-0.73679">
        <ele>1959.8</ele>
        <time>2008-04-13T08:16:14Z</time>
      </trkpt>
      <trkpt lat="42.96199" lon="-0.73671">
        <ele>1956.4</ele>
        <time>2008-04-13T08:16:19Z</time>
      </trkpt>
      <trkpt lat="42.96202" lon="-0.73669">
        <ele>1955.9</ele>
        <time>2008-04-13T08:16:21Z</time>
      </trkpt>
      <trkpt lat="42.96204" lon="-0.73647">
        <ele>1955</ele>
        <time>2008-04-13T08:16:36Z</time>
      </trkpt>
      <trkpt lat="42.96204" lon="-0.7363">
        <ele>1957.9</ele>
        <time>2008-04-13T08:16:50Z</time>
      </trkpt>
      <trkpt lat="42.96206" lon="-0.73611">
        <ele>1959.3</ele>
        <time>2008-04-13T08:17:08Z</time>
      </trkpt>
      <trkpt lat="42.96206" lon="-0.73589">
        <ele>1965.1</ele>
        <time>2008-04-13T08:18:40Z</time>
      </trkpt>
      <trkpt lat="42.96199" lon="-0.73574">
        <ele>1969.9</ele>
        <time>2008-04-13T08:18:56Z</time>
      </trkpt>
      <trkpt lat="42.96197" lon="-0.73574">
        <ele>1970.4</ele>
        <time>2008-04-13T08:18:57Z</time>
      </trkpt>
      <trkpt lat="42.96193" lon="-0.7357">
        <ele>1970.4</ele>
        <time>2008-04-13T08:19:04Z</time>
      </trkpt>
      <trkpt lat="42.96182" lon="-0.73548">
        <ele>1971.3</ele>
        <time>2008-04-13T08:19:24Z</time>
      </trkpt>
      <trkpt lat="42.96165" lon="-0.73523">
        <ele>1973.7</ele>
        <time>2008-04-13T08:19:51Z</time>
      </trkpt>
      <trkpt lat="42.96165" lon="-0.73501">
        <ele>1973.7</ele>
        <time>2008-04-13T08:20:08Z</time>
      </trkpt>
      <trkpt lat="42.96176" lon="-0.73463">
        <ele>1974.7</ele>
        <time>2008-04-13T08:20:35Z</time>
      </trkpt>
      <trkpt lat="42.96184" lon="-0.73437">
        <ele>1976.1</ele>
        <time>2008-04-13T08:20:54Z</time>
      </trkpt>
      <trkpt lat="42.96208" lon="-0.73385">
        <ele>1980</ele>
        <time>2008-04-13T08:21:44Z</time>
      </trkpt>
      <trkpt lat="42.96219" lon="-0.73368">
        <ele>1983.3</ele>
        <time>2008-04-13T08:22:02Z</time>
      </trkpt>
      <trkpt lat="42.96253" lon="-0.73334">
        <ele>1995.4</ele>
        <time>2008-04-13T08:22:57Z</time>
      </trkpt>
      <trkpt lat="42.96283" lon="-0.73297">
        <ele>2000.2</ele>
        <time>2008-04-13T08:23:51Z</time>
      </trkpt>
      <trkpt lat="42.96289" lon="-0.73278">
        <ele>2002.1</ele>
        <time>2008-04-13T08:24:09Z</time>
      </trkpt>
      <trkpt lat="42.96292" lon="-0.7325">
        <ele>2005</ele>
        <time>2008-04-13T08:24:37Z</time>
      </trkpt>
      <trkpt lat="42.96287" lon="-0.73229">
        <ele>2008.3</ele>
        <time>2008-04-13T08:25:04Z</time>
      </trkpt>
      <trkpt lat="42.96283" lon="-0.73218">
        <ele>2011.7</ele>
        <time>2008-04-13T08:25:18Z</time>
      </trkpt>
      <trkpt lat="42.96283" lon="-0.73214">
        <ele>2013.6</ele>
        <time>2008-04-13T08:25:22Z</time>
      </trkpt>
      <trkpt lat="42.96272" lon="-0.73181">
        <ele>2019.4</ele>
        <time>2008-04-13T08:26:03Z</time>
      </trkpt>
      <trkpt lat="42.96268" lon="-0.73179">
        <ele>2018.9</ele>
        <time>2008-04-13T08:26:12Z</time>
      </trkpt>
      <trkpt lat="42.96257" lon="-0.73154">
        <ele>2023.7</ele>
        <time>2008-04-13T08:26:44Z</time>
      </trkpt>
      <trkpt lat="42.96255" lon="-0.73151">
        <ele>2023.7</ele>
        <time>2008-04-13T08:26:45Z</time>
      </trkpt>
      <trkpt lat="42.96255" lon="-0.73149">
        <ele>2021.8</ele>
        <time>2008-04-13T08:26:48Z</time>
      </trkpt>
      <trkpt lat="42.9624" lon="-0.7313">
        <ele>2023.2</ele>
        <time>2008-04-13T08:27:19Z</time>
      </trkpt>
      <trkpt lat="42.9624" lon="-0.73128">
        <ele>2026.6</ele>
        <time>2008-04-13T08:27:22Z</time>
      </trkpt>
      <trkpt lat="42.96238" lon="-0.73128">
        <ele>2028</ele>
        <time>2008-04-13T08:27:24Z</time>
      </trkpt>
      <trkpt lat="42.96232" lon="-0.73119">
        <ele>2025.6</ele>
        <time>2008-04-13T08:27:41Z</time>
      </trkpt>
      <trkpt lat="42.96232" lon="-0.73115">
        <ele>2023.2</ele>
        <time>2008-04-13T08:27:47Z</time>
      </trkpt>
      <trkpt lat="42.96227" lon="-0.73111">
        <ele>2019.9</ele>
        <time>2008-04-13T08:27:54Z</time>
      </trkpt>
      <trkpt lat="42.96227" lon="-0.73106">
        <ele>2022.3</ele>
        <time>2008-04-13T08:28:00Z</time>
      </trkpt>
      <trkpt lat="42.96214" lon="-0.73068">
        <ele>2026.1</ele>
        <time>2008-04-13T08:28:58Z</time>
      </trkpt>
      <trkpt lat="42.96212" lon="-0.73066">
        <ele>2028</ele>
        <time>2008-04-13T08:29:01Z</time>
      </trkpt>
      <trkpt lat="42.9621" lon="-0.73053">
        <ele>2026.6</ele>
        <time>2008-04-13T08:29:11Z</time>
      </trkpt>
      <trkpt lat="42.96214" lon="-0.73031">
        <ele>2030.4</ele>
        <time>2008-04-13T08:29:39Z</time>
      </trkpt>
      <trkpt lat="42.96214" lon="-0.73021">
        <ele>2033.8</ele>
        <time>2008-04-13T08:29:55Z</time>
      </trkpt>
      <trkpt lat="42.96217" lon="-0.73018">
        <ele>2031.9</ele>
        <time>2008-04-13T08:29:57Z</time>
      </trkpt>
      <trkpt lat="42.96219" lon="-0.73001">
        <ele>2033.3</ele>
        <time>2008-04-13T08:30:15Z</time>
      </trkpt>
      <trkpt lat="42.96219" lon="-0.7299">
        <ele>2038.6</ele>
        <time>2008-04-13T08:30:25Z</time>
      </trkpt>
      <trkpt lat="42.96221" lon="-0.72988">
        <ele>2035.7</ele>
        <time>2008-04-13T08:30:27Z</time>
      </trkpt>
      <trkpt lat="42.96225" lon="-0.72963">
        <ele>2037.2</ele>
        <time>2008-04-13T08:30:47Z</time>
      </trkpt>
      <trkpt lat="42.96242" lon="-0.72933">
        <ele>2039.1</ele>
        <time>2008-04-13T08:31:15Z</time>
      </trkpt>
      <trkpt lat="42.96251" lon="-0.72911">
        <ele>2038.1</ele>
        <time>2008-04-13T08:31:37Z</time>
      </trkpt>
      <trkpt lat="42.96249" lon="-0.72909">
        <ele>2039.1</ele>
        <time>2008-04-13T08:31:48Z</time>
      </trkpt>
      <trkpt lat="42.96247" lon="-0.72911">
        <ele>2039.6</ele>
        <time>2008-04-13T08:32:13Z</time>
      </trkpt>
      <trkpt lat="42.96249" lon="-0.72881">
        <ele>2039.1</ele>
        <time>2008-04-13T08:32:40Z</time>
      </trkpt>
      <trkpt lat="42.96255" lon="-0.72864">
        <ele>2041</ele>
        <time>2008-04-13T08:32:59Z</time>
      </trkpt>
      <trkpt lat="42.96262" lon="-0.72853">
        <ele>2044.4</ele>
        <time>2008-04-13T08:33:12Z</time>
      </trkpt>
      <trkpt lat="42.96264" lon="-0.72836">
        <ele>2045.3</ele>
        <time>2008-04-13T08:33:29Z</time>
      </trkpt>
      <trkpt lat="42.96266" lon="-0.7283">
        <ele>2047.7</ele>
        <time>2008-04-13T08:33:38Z</time>
      </trkpt>
      <trkpt lat="42.96266" lon="-0.72821">
        <ele>2049.7</ele>
        <time>2008-04-13T08:33:47Z</time>
      </trkpt>
      <trkpt lat="42.9627" lon="-0.7281">
        <ele>2048.7</ele>
        <time>2008-04-13T08:34:03Z</time>
      </trkpt>
      <trkpt lat="42.96272" lon="-0.72795">
        <ele>2054.5</ele>
        <time>2008-04-13T08:34:21Z</time>
      </trkpt>
      <trkpt lat="42.96274" lon="-0.72791">
        <ele>2050.1</ele>
        <time>2008-04-13T08:34:27Z</time>
      </trkpt>
      <trkpt lat="42.96274" lon="-0.72787">
        <ele>2052.6</ele>
        <time>2008-04-13T08:34:30Z</time>
      </trkpt>
      <trkpt lat="42.96279" lon="-0.72776">
        <ele>2055</ele>
        <time>2008-04-13T08:34:46Z</time>
      </trkpt>
      <trkpt lat="42.96281" lon="-0.72765">
        <ele>2055</ele>
        <time>2008-04-13T08:35:00Z</time>
      </trkpt>
      <trkpt lat="42.96285" lon="-0.72757">
        <ele>2058.3</ele>
        <time>2008-04-13T08:35:10Z</time>
      </trkpt>
      <trkpt lat="42.96289" lon="-0.72727">
        <ele>2061.2</ele>
        <time>2008-04-13T08:35:40Z</time>
      </trkpt>
      <trkpt lat="42.96289" lon="-0.72716">
        <ele>2061.2</ele>
        <time>2008-04-13T08:35:50Z</time>
      </trkpt>
      <trkpt lat="42.96292" lon="-0.72707">
        <ele>2059.3</ele>
        <time>2008-04-13T08:35:58Z</time>
      </trkpt>
      <trkpt lat="42.96289" lon="-0.72694">
        <ele>2057.8</ele>
        <time>2008-04-13T08:36:13Z</time>
      </trkpt>
      <trkpt lat="42.96281" lon="-0.72675">
        <ele>2061.7</ele>
        <time>2008-04-13T08:36:42Z</time>
      </trkpt>
      <trkpt lat="42.96281" lon="-0.72671">
        <ele>2063.1</ele>
        <time>2008-04-13T08:36:45Z</time>
      </trkpt>
      <trkpt lat="42.96272" lon="-0.72651">
        <ele>2064.6</ele>
        <time>2008-04-13T08:37:09Z</time>
      </trkpt>
      <trkpt lat="42.96268" lon="-0.72636">
        <ele>2065.5</ele>
        <time>2008-04-13T08:37:26Z</time>
      </trkpt>
      <trkpt lat="42.96266" lon="-0.72634">
        <ele>2063.6</ele>
        <time>2008-04-13T08:37:29Z</time>
      </trkpt>
      <trkpt lat="42.96266" lon="-0.7263">
        <ele>2067</ele>
        <time>2008-04-13T08:37:34Z</time>
      </trkpt>
      <trkpt lat="42.96262" lon="-0.72615">
        <ele>2069.9</ele>
        <time>2008-04-13T08:37:52Z</time>
      </trkpt>
      <trkpt lat="42.96247" lon="-0.72589">
        <ele>2069.4</ele>
        <time>2008-04-13T08:38:21Z</time>
      </trkpt>
      <trkpt lat="42.96249" lon="-0.72587">
        <ele>2067.9</ele>
        <time>2008-04-13T08:38:22Z</time>
      </trkpt>
      <trkpt lat="42.96251" lon="-0.72581">
        <ele>2070.3</ele>
        <time>2008-04-13T08:38:31Z</time>
      </trkpt>
      <trkpt lat="42.96251" lon="-0.72557">
        <ele>2069.4</ele>
        <time>2008-04-13T08:38:52Z</time>
      </trkpt>
      <trkpt lat="42.96249" lon="-0.72548">
        <ele>2069.4</ele>
        <time>2008-04-13T08:39:01Z</time>
      </trkpt>
      <trkpt lat="42.96249" lon="-0.72538">
        <ele>2070.3</ele>
        <time>2008-04-13T08:39:14Z</time>
      </trkpt>
      <trkpt lat="42.96251" lon="-0.72521">
        <ele>2070.8</ele>
        <time>2008-04-13T08:39:33Z</time>
      </trkpt>
      <trkpt lat="42.96255" lon="-0.7251">
        <ele>2072.3</ele>
        <time>2008-04-13T08:39:47Z</time>
      </trkpt>
      <trkpt lat="42.96255" lon="-0.72501">
        <ele>2073.2</ele>
        <time>2008-04-13T08:40:03Z</time>
      </trkpt>
      <trkpt lat="42.96257" lon="-0.72499">
        <ele>2073.2</ele>
        <time>2008-04-13T08:40:10Z</time>
      </trkpt>
      <trkpt lat="42.96259" lon="-0.72493">
        <ele>2076.1</ele>
        <time>2008-04-13T08:40:20Z</time>
      </trkpt>
      <trkpt lat="42.96268" lon="-0.72482">
        <ele>2078</ele>
        <time>2008-04-13T08:40:42Z</time>
      </trkpt>
      <trkpt lat="42.9627" lon="-0.72482">
        <ele>2078.5</ele>
        <time>2008-04-13T08:40:46Z</time>
      </trkpt>
      <trkpt lat="42.96274" lon="-0.72475">
        <ele>2081.4</ele>
        <time>2008-04-13T08:41:00Z</time>
      </trkpt>
      <trkpt lat="42.96277" lon="-0.72467">
        <ele>2083.8</ele>
        <time>2008-04-13T08:41:12Z</time>
      </trkpt>
      <trkpt lat="42.96281" lon="-0.72463">
        <ele>2088.1</ele>
        <time>2008-04-13T08:41:20Z</time>
      </trkpt>
      <trkpt lat="42.96289" lon="-0.72441">
        <ele>2088.1</ele>
        <time>2008-04-13T08:41:58Z</time>
      </trkpt>
      <trkpt lat="42.963" lon="-0.72426">
        <ele>2092.9</ele>
        <time>2008-04-13T08:42:27Z</time>
      </trkpt>
      <trkpt lat="42.96311" lon="-0.72403">
        <ele>2099.2</ele>
        <time>2008-04-13T08:43:02Z</time>
      </trkpt>
      <trkpt lat="42.96313" lon="-0.72394">
        <ele>2104</ele>
        <time>2008-04-13T08:43:15Z</time>
      </trkpt>
      <trkpt lat="42.96335" lon="-0.72355">
        <ele>2115.5</ele>
        <time>2008-04-13T08:44:35Z</time>
      </trkpt>
      <trkpt lat="42.96335" lon="-0.72349">
        <ele>2114.6</ele>
        <time>2008-04-13T08:44:42Z</time>
      </trkpt>
      <trkpt lat="42.96343" lon="-0.72327">
        <ele>2119.4</ele>
        <time>2008-04-13T08:45:13Z</time>
      </trkpt>
      <trkpt lat="42.96345" lon="-0.72312">
        <ele>2118.4</ele>
        <time>2008-04-13T08:45:31Z</time>
      </trkpt>
      <trkpt lat="42.96347" lon="-0.7231">
        <ele>2121.3</ele>
        <time>2008-04-13T08:45:33Z</time>
      </trkpt>
      <trkpt lat="42.9635" lon="-0.72293">
        <ele>2120.8</ele>
        <time>2008-04-13T08:45:55Z</time>
      </trkpt>
      <trkpt lat="42.96354" lon="-0.72282">
        <ele>2124.7</ele>
        <time>2008-04-13T08:46:08Z</time>
      </trkpt>
      <trkpt lat="42.96358" lon="-0.72257">
        <ele>2128.5</ele>
        <time>2008-04-13T08:46:36Z</time>
      </trkpt>
      <trkpt lat="42.9636" lon="-0.7225">
        <ele>2132.8</ele>
        <time>2008-04-13T08:46:44Z</time>
      </trkpt>
      <trkpt lat="42.96356" lon="-0.72233">
        <ele>2131.4</ele>
        <time>2008-04-13T08:47:03Z</time>
      </trkpt>
      <trkpt lat="42.96345" lon="-0.72222">
        <ele>2133.8</ele>
        <time>2008-04-13T08:47:22Z</time>
      </trkpt>
      <trkpt lat="42.96343" lon="-0.72222">
        <ele>2136.2</ele>
        <time>2008-04-13T08:47:28Z</time>
      </trkpt>
      <trkpt lat="42.96343" lon="-0.7222">
        <ele>2134.3</ele>
        <time>2008-04-13T08:47:30Z</time>
      </trkpt>
      <trkpt lat="42.9633" lon="-0.72216">
        <ele>2141</ele>
        <time>2008-04-13T08:47:49Z</time>
      </trkpt>
      <trkpt lat="42.9633" lon="-0.72214">
        <ele>2139.1</ele>
        <time>2008-04-13T08:47:52Z</time>
      </trkpt>
      <trkpt lat="42.9632" lon="-0.72209">
        <ele>2144.4</ele>
        <time>2008-04-13T08:48:14Z</time>
      </trkpt>
      <trkpt lat="42.96311" lon="-0.72214">
        <ele>2146.3</ele>
        <time>2008-04-13T08:48:35Z</time>
      </trkpt>
      <trkpt lat="42.96311" lon="-0.72216">
        <ele>2146.3</ele>
        <time>2008-04-13T08:48:36Z</time>
      </trkpt>
      <trkpt lat="42.96307" lon="-0.72214">
        <ele>2142.4</ele>
        <time>2008-04-13T08:48:42Z</time>
      </trkpt>
      <trkpt lat="42.96307" lon="-0.72207">
        <ele>2137.1</ele>
        <time>2008-04-13T08:58:09Z</time>
      </trkpt>
      <trkpt lat="42.96298" lon="-0.72216">
        <ele>2139.6</ele>
        <time>2008-04-13T08:58:29Z</time>
      </trkpt>
      <trkpt lat="42.96296" lon="-0.7222">
        <ele>2143.4</ele>
        <time>2008-04-13T08:58:35Z</time>
      </trkpt>
      <trkpt lat="42.96294" lon="-0.7222">
        <ele>2143.4</ele>
        <time>2008-04-13T08:58:36Z</time>
      </trkpt>
      <trkpt lat="42.96285" lon="-0.72205">
        <ele>2148.7</ele>
        <time>2008-04-13T08:59:07Z</time>
      </trkpt>
      <trkpt lat="42.96285" lon="-0.72203">
        <ele>2144.4</ele>
        <time>2008-04-13T08:59:11Z</time>
      </trkpt>
      <trkpt lat="42.96274" lon="-0.72214">
        <ele>2146.8</ele>
        <time>2008-04-13T08:59:34Z</time>
      </trkpt>
      <trkpt lat="42.96272" lon="-0.72214">
        <ele>2148.7</ele>
        <time>2008-04-13T08:59:37Z</time>
      </trkpt>
      <trkpt lat="42.9627" lon="-0.72218">
        <ele>2151.1</ele>
        <time>2008-04-13T08:59:46Z</time>
      </trkpt>
      <trkpt lat="42.96264" lon="-0.72214">
        <ele>2154.5</ele>
        <time>2008-04-13T08:59:58Z</time>
      </trkpt>
      <trkpt lat="42.96255" lon="-0.72218">
        <ele>2158.3</ele>
        <time>2008-04-13T09:00:09Z</time>
      </trkpt>
      <trkpt lat="42.96253" lon="-0.72222">
        <ele>2163.1</ele>
        <time>2008-04-13T09:00:16Z</time>
      </trkpt>
      <trkpt lat="42.96259" lon="-0.72233">
        <ele>2165.5</ele>
        <time>2008-04-13T09:00:34Z</time>
      </trkpt>
      <trkpt lat="42.96259" lon="-0.72237">
        <ele>2166.5</ele>
        <time>2008-04-13T09:00:38Z</time>
      </trkpt>
      <trkpt lat="42.96262" lon="-0.72239">
        <ele>2172.7</ele>
        <time>2008-04-13T09:00:42Z</time>
      </trkpt>
      <trkpt lat="42.96268" lon="-0.72267">
        <ele>2134.3</ele>
        <time>2008-04-13T09:51:12Z</time>
      </trkpt>
      <trkpt lat="42.96279" lon="-0.72235">
        <ele>2136.2</ele>
        <time>2008-04-13T09:51:43Z</time>
      </trkpt>
      <trkpt lat="42.96281" lon="-0.72235">
        <ele>2139.6</ele>
        <time>2008-04-13T09:51:59Z</time>
      </trkpt>
      <trkpt lat="42.96281" lon="-0.72237">
        <ele>2138.1</ele>
        <time>2008-04-13T09:52:08Z</time>
      </trkpt>
      <trkpt lat="42.96289" lon="-0.72235">
        <ele>2137.6</ele>
        <time>2008-04-13T09:52:11Z</time>
      </trkpt>
      <trkpt lat="42.963" lon="-0.72227">
        <ele>2132.3</ele>
        <time>2008-04-13T09:52:14Z</time>
      </trkpt>
      <trkpt lat="42.9632" lon="-0.72237">
        <ele>2127.5</ele>
        <time>2008-04-13T09:52:19Z</time>
      </trkpt>
      <trkpt lat="42.96337" lon="-0.7222">
        <ele>2129.5</ele>
        <time>2008-04-13T09:52:26Z</time>
      </trkpt>
      <trkpt lat="42.96337" lon="-0.72224">
        <ele>2117.9</ele>
        <time>2008-04-13T09:52:38Z</time>
      </trkpt>
      <trkpt lat="42.96347" lon="-0.72242">
        <ele>2119.8</ele>
        <time>2008-04-13T09:52:48Z</time>
      </trkpt>
      <trkpt lat="42.96358" lon="-0.72265">
        <ele>2124.7</ele>
        <time>2008-04-13T09:52:56Z</time>
      </trkpt>
      <trkpt lat="42.96358" lon="-0.72269">
        <ele>2119.8</ele>
        <time>2008-04-13T09:52:57Z</time>
      </trkpt>
      <trkpt lat="42.9636" lon="-0.72276">
        <ele>2120.3</ele>
        <time>2008-04-13T09:52:58Z</time>
      </trkpt>
      <trkpt lat="42.9636" lon="-0.72282">
        <ele>2114.6</ele>
        <time>2008-04-13T09:53:00Z</time>
      </trkpt>
      <trkpt lat="42.96352" lon="-0.72289">
        <ele>2109.8</ele>
        <time>2008-04-13T09:53:09Z</time>
      </trkpt>
      <trkpt lat="42.96352" lon="-0.72287">
        <ele>2113.1</ele>
        <time>2008-04-13T09:53:14Z</time>
      </trkpt>
      <trkpt lat="42.9635" lon="-0.72289">
        <ele>2113.1</ele>
        <time>2008-04-13T09:53:18Z</time>
      </trkpt>
      <trkpt lat="42.96335" lon="-0.72338">
        <ele>2107.3</ele>
        <time>2008-04-13T09:53:36Z</time>
      </trkpt>
      <trkpt lat="42.96326" lon="-0.7236">
        <ele>2100.6</ele>
        <time>2008-04-13T09:53:40Z</time>
      </trkpt>
      <trkpt lat="42.96309" lon="-0.72396">
        <ele>2095.3</ele>
        <time>2008-04-13T09:53:47Z</time>
      </trkpt>
      <trkpt lat="42.96302" lon="-0.72413">
        <ele>2092</ele>
        <time>2008-04-13T09:53:50Z</time>
      </trkpt>
      <trkpt lat="42.96294" lon="-0.72424">
        <ele>2086.7</ele>
        <time>2008-04-13T09:53:53Z</time>
      </trkpt>
      <trkpt lat="42.96281" lon="-0.72448">
        <ele>2080.9</ele>
        <time>2008-04-13T09:53:59Z</time>
      </trkpt>
      <trkpt lat="42.96247" lon="-0.72495">
        <ele>2069.9</ele>
        <time>2008-04-13T09:54:07Z</time>
      </trkpt>
      <trkpt lat="42.96238" lon="-0.72512">
        <ele>2063.6</ele>
        <time>2008-04-13T09:54:10Z</time>
      </trkpt>
      <trkpt lat="42.96238" lon="-0.72516">
        <ele>2060.2</ele>
        <time>2008-04-13T09:54:11Z</time>
      </trkpt>
      <trkpt lat="42.96232" lon="-0.72533">
        <ele>2063.1</ele>
        <time>2008-04-13T09:54:15Z</time>
      </trkpt>
      <trkpt lat="42.96238" lon="-0.72568">
        <ele>2057.8</ele>
        <time>2008-04-13T09:54:24Z</time>
      </trkpt>
      <trkpt lat="42.96244" lon="-0.72578">
        <ele>2053.5</ele>
        <time>2008-04-13T09:54:30Z</time>
      </trkpt>
      <trkpt lat="42.96244" lon="-0.72581">
        <ele>2054</ele>
        <time>2008-04-13T09:54:31Z</time>
      </trkpt>
      <trkpt lat="42.96249" lon="-0.72585">
        <ele>2052.6</ele>
        <time>2008-04-13T09:54:43Z</time>
      </trkpt>
      <trkpt lat="42.96247" lon="-0.72587">
        <ele>2052.6</ele>
        <time>2008-04-13T09:55:10Z</time>
      </trkpt>
      <trkpt lat="42.96253" lon="-0.72591">
        <ele>2054</ele>
        <time>2008-04-13T09:55:24Z</time>
      </trkpt>
      <trkpt lat="42.96253" lon="-0.72596">
        <ele>2055</ele>
        <time>2008-04-13T09:55:28Z</time>
      </trkpt>
      <trkpt lat="42.96264" lon="-0.72615">
        <ele>2064.1</ele>
        <time>2008-04-13T09:55:46Z</time>
      </trkpt>
      <trkpt lat="42.96264" lon="-0.72619">
        <ele>2061.7</ele>
        <time>2008-04-13T09:55:47Z</time>
      </trkpt>
      <trkpt lat="42.96266" lon="-0.72624">
        <ele>2058.8</ele>
        <time>2008-04-13T09:55:49Z</time>
      </trkpt>
      <trkpt lat="42.96266" lon="-0.72628">
        <ele>2055.4</ele>
        <time>2008-04-13T09:55:50Z</time>
      </trkpt>
      <trkpt lat="42.96274" lon="-0.72649">
        <ele>2058.8</ele>
        <time>2008-04-13T09:55:58Z</time>
      </trkpt>
      <trkpt lat="42.96274" lon="-0.72654">
        <ele>2059.3</ele>
        <time>2008-04-13T09:55:59Z</time>
      </trkpt>
      <trkpt lat="42.96277" lon="-0.72656">
        <ele>2055.4</ele>
        <time>2008-04-13T09:56:00Z</time>
      </trkpt>
      <trkpt lat="42.96292" lon="-0.72703">
        <ele>2051.6</ele>
        <time>2008-04-13T09:56:12Z</time>
      </trkpt>
      <trkpt lat="42.96296" lon="-0.72729">
        <ele>2051.1</ele>
        <time>2008-04-13T09:56:19Z</time>
      </trkpt>
      <trkpt lat="42.96296" lon="-0.72739">
        <ele>2053</ele>
        <time>2008-04-13T09:56:23Z</time>
      </trkpt>
      <trkpt lat="42.96294" lon="-0.72752">
        <ele>2050.6</ele>
        <time>2008-04-13T09:56:32Z</time>
      </trkpt>
      <trkpt lat="42.96292" lon="-0.72754">
        <ele>2058.3</ele>
        <time>2008-04-13T09:56:33Z</time>
      </trkpt>
      <trkpt lat="42.96289" lon="-0.72765">
        <ele>2051.1</ele>
        <time>2008-04-13T09:56:38Z</time>
      </trkpt>
      <trkpt lat="42.96287" lon="-0.72767">
        <ele>2051.6</ele>
        <time>2008-04-13T09:56:39Z</time>
      </trkpt>
      <trkpt lat="42.96287" lon="-0.72772">
        <ele>2055.4</ele>
        <time>2008-04-13T09:56:40Z</time>
      </trkpt>
      <trkpt lat="42.96285" lon="-0.72774">
        <ele>2055</ele>
        <time>2008-04-13T09:56:41Z</time>
      </trkpt>
      <trkpt lat="42.9627" lon="-0.72817">
        <ele>2044.4</ele>
        <time>2008-04-13T09:56:52Z</time>
      </trkpt>
      <trkpt lat="42.96259" lon="-0.7286">
        <ele>2033.3</ele>
        <time>2008-04-13T09:56:59Z</time>
      </trkpt>
      <trkpt lat="42.96259" lon="-0.72866">
        <ele>2034.8</ele>
        <time>2008-04-13T09:57:00Z</time>
      </trkpt>
      <trkpt lat="42.96251" lon="-0.729">
        <ele>2031.9</ele>
        <time>2008-04-13T09:57:05Z</time>
      </trkpt>
      <trkpt lat="42.96251" lon="-0.72922">
        <ele>2027.6</ele>
        <time>2008-04-13T09:57:27Z</time>
      </trkpt>
      <trkpt lat="42.96249" lon="-0.72926">
        <ele>2030</ele>
        <time>2008-04-13T09:57:29Z</time>
      </trkpt>
      <trkpt lat="42.96234" lon="-0.72943">
        <ele>2030.9</ele>
        <time>2008-04-13T09:57:38Z</time>
      </trkpt>
      <trkpt lat="42.96232" lon="-0.7295">
        <ele>2028.5</ele>
        <time>2008-04-13T09:57:41Z</time>
      </trkpt>
      <trkpt lat="42.96229" lon="-0.72952">
        <ele>2031.9</ele>
        <time>2008-04-13T09:57:42Z</time>
      </trkpt>
      <trkpt lat="42.96221" lon="-0.7298">
        <ele>2030</ele>
        <time>2008-04-13T09:57:51Z</time>
      </trkpt>
      <trkpt lat="42.96221" lon="-0.72984">
        <ele>2026.1</ele>
        <time>2008-04-13T09:57:53Z</time>
      </trkpt>
      <trkpt lat="42.96219" lon="-0.72986">
        <ele>2026.6</ele>
        <time>2008-04-13T09:57:54Z</time>
      </trkpt>
      <trkpt lat="42.96219" lon="-0.72988">
        <ele>2025.2</ele>
        <time>2008-04-13T09:57:56Z</time>
      </trkpt>
      <trkpt lat="42.96221" lon="-0.7299">
        <ele>2022.3</ele>
        <time>2008-04-13T09:57:59Z</time>
      </trkpt>
      <trkpt lat="42.9621" lon="-0.73031">
        <ele>2021.3</ele>
        <time>2008-04-13T09:58:42Z</time>
      </trkpt>
      <trkpt lat="42.96204" lon="-0.73046">
        <ele>2017.9</ele>
        <time>2008-04-13T09:58:45Z</time>
      </trkpt>
      <trkpt lat="42.9621" lon="-0.73068">
        <ele>2013.1</ele>
        <time>2008-04-13T09:58:49Z</time>
      </trkpt>
      <trkpt lat="42.96221" lon="-0.73087">
        <ele>2012.7</ele>
        <time>2008-04-13T09:58:54Z</time>
      </trkpt>
      <trkpt lat="42.96227" lon="-0.73106">
        <ele>2008.8</ele>
        <time>2008-04-13T09:58:58Z</time>
      </trkpt>
      <trkpt lat="42.9624" lon="-0.7313">
        <ele>2010.7</ele>
        <time>2008-04-13T09:59:03Z</time>
      </trkpt>
      <trkpt lat="42.96251" lon="-0.73143">
        <ele>2005.9</ele>
        <time>2008-04-13T09:59:05Z</time>
      </trkpt>
      <trkpt lat="42.9627" lon="-0.73175">
        <ele>2005</ele>
        <time>2008-04-13T09:59:10Z</time>
      </trkpt>
      <trkpt lat="42.96287" lon="-0.73222">
        <ele>1999.2</ele>
        <time>2008-04-13T09:59:16Z</time>
      </trkpt>
      <trkpt lat="42.96292" lon="-0.73246">
        <ele>1998.2</ele>
        <time>2008-04-13T09:59:19Z</time>
      </trkpt>
      <trkpt lat="42.96294" lon="-0.73284">
        <ele>1999.7</ele>
        <time>2008-04-13T09:59:23Z</time>
      </trkpt>
      <trkpt lat="42.96289" lon="-0.73299">
        <ele>1994.9</ele>
        <time>2008-04-13T09:59:26Z</time>
      </trkpt>
      <trkpt lat="42.96287" lon="-0.73302">
        <ele>1993.4</ele>
        <time>2008-04-13T09:59:28Z</time>
      </trkpt>
      <trkpt lat="42.96287" lon="-0.73293">
        <ele>1991</ele>
        <time>2008-04-13T10:00:08Z</time>
      </trkpt>
      <trkpt lat="42.96283" lon="-0.73291">
        <ele>1993.9</ele>
        <time>2008-04-13T10:00:30Z</time>
      </trkpt>
      <trkpt lat="42.96277" lon="-0.73302">
        <ele>1992.5</ele>
        <time>2008-04-13T10:00:35Z</time>
      </trkpt>
      <trkpt lat="42.96266" lon="-0.73312">
        <ele>1989.6</ele>
        <time>2008-04-13T10:00:39Z</time>
      </trkpt>
      <trkpt lat="42.96242" lon="-0.7334">
        <ele>1990.5</ele>
        <time>2008-04-13T10:00:51Z</time>
      </trkpt>
      <trkpt lat="42.96225" lon="-0.73357">
        <ele>1984.3</ele>
        <time>2008-04-13T10:01:01Z</time>
      </trkpt>
      <trkpt lat="42.96219" lon="-0.73368">
        <ele>1977.6</ele>
        <time>2008-04-13T10:01:04Z</time>
      </trkpt>
      <trkpt lat="42.96212" lon="-0.73375">
        <ele>1973.2</ele>
        <time>2008-04-13T10:01:06Z</time>
      </trkpt>
      <trkpt lat="42.96186" lon="-0.73422">
        <ele>1969.4</ele>
        <time>2008-04-13T10:01:16Z</time>
      </trkpt>
      <trkpt lat="42.96184" lon="-0.73428">
        <ele>1969.4</ele>
        <time>2008-04-13T10:01:17Z</time>
      </trkpt>
      <trkpt lat="42.96169" lon="-0.73454">
        <ele>1964.1</ele>
        <time>2008-04-13T10:01:28Z</time>
      </trkpt>
      <trkpt lat="42.96171" lon="-0.73456">
        <ele>1965.1</ele>
        <time>2008-04-13T10:01:42Z</time>
      </trkpt>
      <trkpt lat="42.96167" lon="-0.73484">
        <ele>1965.6</ele>
        <time>2008-04-13T10:01:59Z</time>
      </trkpt>
      <trkpt lat="42.96163" lon="-0.73495">
        <ele>1964.6</ele>
        <time>2008-04-13T10:02:15Z</time>
      </trkpt>
      <trkpt lat="42.96159" lon="-0.73512">
        <ele>1963.1</ele>
        <time>2008-04-13T10:02:59Z</time>
      </trkpt>
      <trkpt lat="42.96156" lon="-0.73514">
        <ele>1961.2</ele>
        <time>2008-04-13T10:03:01Z</time>
      </trkpt>
      <trkpt lat="42.96176" lon="-0.73559">
        <ele>1960.3</ele>
        <time>2008-04-13T10:03:13Z</time>
      </trkpt>
      <trkpt lat="42.96208" lon="-0.73581">
        <ele>1958.8</ele>
        <time>2008-04-13T10:03:23Z</time>
      </trkpt>
      <trkpt lat="42.96219" lon="-0.73583">
        <ele>1956.9</ele>
        <time>2008-04-13T10:03:28Z</time>
      </trkpt>
      <trkpt lat="42.96221" lon="-0.73606">
        <ele>1954.5</ele>
        <time>2008-04-13T10:03:39Z</time>
      </trkpt>
      <trkpt lat="42.96219" lon="-0.73606">
        <ele>1955.5</ele>
        <time>2008-04-13T10:03:44Z</time>
      </trkpt>
      <trkpt lat="42.9621" lon="-0.73619">
        <ele>1947.3</ele>
        <time>2008-04-13T10:04:07Z</time>
      </trkpt>
      <trkpt lat="42.96206" lon="-0.73658">
        <ele>1948.2</ele>
        <time>2008-04-13T10:04:12Z</time>
      </trkpt>
      <trkpt lat="42.96199" lon="-0.73686">
        <ele>1949.7</ele>
        <time>2008-04-13T10:04:20Z</time>
      </trkpt>
      <trkpt lat="42.96186" lon="-0.73709">
        <ele>1943.4</ele>
        <time>2008-04-13T10:04:28Z</time>
      </trkpt>
      <trkpt lat="42.96197" lon="-0.73735">
        <ele>1937.2</ele>
        <time>2008-04-13T10:04:32Z</time>
      </trkpt>
      <trkpt lat="42.96197" lon="-0.73761">
        <ele>1934.8</ele>
        <time>2008-04-13T10:04:35Z</time>
      </trkpt>
      <trkpt lat="42.96204" lon="-0.73791">
        <ele>1930.9</ele>
        <time>2008-04-13T10:04:39Z</time>
      </trkpt>
      <trkpt lat="42.96199" lon="-0.73819">
        <ele>1928.5</ele>
        <time>2008-04-13T10:04:45Z</time>
      </trkpt>
      <trkpt lat="42.96195" lon="-0.73823">
        <ele>1927.1</ele>
        <time>2008-04-13T10:05:07Z</time>
      </trkpt>
      <trkpt lat="42.96191" lon="-0.73823">
        <ele>1930.5</ele>
        <time>2008-04-13T10:05:27Z</time>
      </trkpt>
      <trkpt lat="42.96193" lon="-0.73827">
        <ele>1927.6</ele>
        <time>2008-04-13T10:05:41Z</time>
      </trkpt>
      <trkpt lat="42.96206" lon="-0.73836">
        <ele>1929.5</ele>
        <time>2008-04-13T10:05:47Z</time>
      </trkpt>
      <trkpt lat="42.96212" lon="-0.73857">
        <ele>1921.3</ele>
        <time>2008-04-13T10:05:52Z</time>
      </trkpt>
      <trkpt lat="42.96214" lon="-0.7386">
        <ele>1918.4</ele>
        <time>2008-04-13T10:06:27Z</time>
      </trkpt>
      <trkpt lat="42.96219" lon="-0.73872">
        <ele>1916</ele>
        <time>2008-04-13T10:06:30Z</time>
      </trkpt>
      <trkpt lat="42.96232" lon="-0.73898">
        <ele>1912.2</ele>
        <time>2008-04-13T10:06:33Z</time>
      </trkpt>
      <trkpt lat="42.96249" lon="-0.73958">
        <ele>1909.3</ele>
        <time>2008-04-13T10:06:42Z</time>
      </trkpt>
      <trkpt lat="42.96259" lon="-0.73973">
        <ele>1910.3</ele>
        <time>2008-04-13T10:08:31Z</time>
      </trkpt>
      <trkpt lat="42.96264" lon="-0.74031">
        <ele>1904.5</ele>
        <time>2008-04-13T10:08:43Z</time>
      </trkpt>
      <trkpt lat="42.96264" lon="-0.74048">
        <ele>1904</ele>
        <time>2008-04-13T10:08:45Z</time>
      </trkpt>
      <trkpt lat="42.96274" lon="-0.74134">
        <ele>1891.5</ele>
        <time>2008-04-13T10:08:54Z</time>
      </trkpt>
      <trkpt lat="42.96274" lon="-0.74156">
        <ele>1888.2</ele>
        <time>2008-04-13T10:08:56Z</time>
      </trkpt>
      <trkpt lat="42.96277" lon="-0.74166">
        <ele>1888.6</ele>
        <time>2008-04-13T10:08:57Z</time>
      </trkpt>
      <trkpt lat="42.96277" lon="-0.74214">
        <ele>1884.8</ele>
        <time>2008-04-13T10:09:03Z</time>
      </trkpt>
      <trkpt lat="42.96279" lon="-0.74222">
        <ele>1884.8</ele>
        <time>2008-04-13T10:09:05Z</time>
      </trkpt>
      <trkpt lat="42.96279" lon="-0.74263">
        <ele>1880.5</ele>
        <time>2008-04-13T10:09:12Z</time>
      </trkpt>
      <trkpt lat="42.96281" lon="-0.7431">
        <ele>1877.1</ele>
        <time>2008-04-13T10:09:20Z</time>
      </trkpt>
      <trkpt lat="42.96296" lon="-0.74329">
        <ele>1872.8</ele>
        <time>2008-04-13T10:09:25Z</time>
      </trkpt>
      <trkpt lat="42.96298" lon="-0.74338">
        <ele>1872.3</ele>
        <time>2008-04-13T10:09:26Z</time>
      </trkpt>
      <trkpt lat="42.96326" lon="-0.74368">
        <ele>1865.6</ele>
        <time>2008-04-13T10:09:33Z</time>
      </trkpt>
      <trkpt lat="42.9635" lon="-0.74359">
        <ele>1864.6</ele>
        <time>2008-04-13T10:09:38Z</time>
      </trkpt>
      <trkpt lat="42.96362" lon="-0.74344">
        <ele>1862.2</ele>
        <time>2008-04-13T10:09:41Z</time>
      </trkpt>
      <trkpt lat="42.96365" lon="-0.74319">
        <ele>1860.8</ele>
        <time>2008-04-13T10:09:44Z</time>
      </trkpt>
      <trkpt lat="42.96362" lon="-0.74308">
        <ele>1861.2</ele>
        <time>2008-04-13T10:09:52Z</time>
      </trkpt>
      <trkpt lat="42.96345" lon="-0.74299">
        <ele>1861.7</ele>
        <time>2008-04-13T10:10:21Z</time>
      </trkpt>
      <trkpt lat="42.96324" lon="-0.74261">
        <ele>1856.4</ele>
        <time>2008-04-13T10:11:00Z</time>
      </trkpt>
      <trkpt lat="42.9633" lon="-0.74254">
        <ele>1856.4</ele>
        <time>2008-04-13T10:11:28Z</time>
      </trkpt>
      <trkpt lat="42.96335" lon="-0.74261">
        <ele>1854.5</ele>
        <time>2008-04-13T10:11:50Z</time>
      </trkpt>
      <trkpt lat="42.96354" lon="-0.74267">
        <ele>1854</ele>
        <time>2008-04-13T10:12:16Z</time>
      </trkpt>
      <trkpt lat="42.96362" lon="-0.74263">
        <ele>1852.6</ele>
        <time>2008-04-13T10:13:10Z</time>
      </trkpt>
      <trkpt lat="42.96365" lon="-0.74231">
        <ele>1850.7</ele>
        <time>2008-04-13T10:13:18Z</time>
      </trkpt>
      <trkpt lat="42.96369" lon="-0.74214">
        <ele>1849.2</ele>
        <time>2008-04-13T10:13:21Z</time>
      </trkpt>
      <trkpt lat="42.96362" lon="-0.74211">
        <ele>1846.8</ele>
        <time>2008-04-13T10:14:20Z</time>
      </trkpt>
      <trkpt lat="42.96373" lon="-0.74196">
        <ele>1843</ele>
        <time>2008-04-13T10:14:27Z</time>
      </trkpt>
      <trkpt lat="42.96399" lon="-0.74173">
        <ele>1835.8</ele>
        <time>2008-04-13T10:14:35Z</time>
      </trkpt>
      <trkpt lat="42.96412" lon="-0.74164">
        <ele>1834.3</ele>
        <time>2008-04-13T10:14:38Z</time>
      </trkpt>
      <trkpt lat="42.96483" lon="-0.74134">
        <ele>1825.2</ele>
        <time>2008-04-13T10:14:49Z</time>
      </trkpt>
      <trkpt lat="42.96526" lon="-0.74106">
        <ele>1822.8</ele>
        <time>2008-04-13T10:15:00Z</time>
      </trkpt>
      <trkpt lat="42.96547" lon="-0.74081">
        <ele>1820.4</ele>
        <time>2008-04-13T10:15:13Z</time>
      </trkpt>
      <trkpt lat="42.96588" lon="-0.74046">
        <ele>1815.6</ele>
        <time>2008-04-13T10:15:23Z</time>
      </trkpt>
      <trkpt lat="42.96594" lon="-0.74046">
        <ele>1819.4</ele>
        <time>2008-04-13T10:15:26Z</time>
      </trkpt>
      <trkpt lat="42.96598" lon="-0.74048">
        <ele>1817.5</ele>
        <time>2008-04-13T10:15:50Z</time>
      </trkpt>
      <trkpt lat="42.96605" lon="-0.74042">
        <ele>1813.2</ele>
        <time>2008-04-13T10:15:54Z</time>
      </trkpt>
      <trkpt lat="42.96618" lon="-0.74035">
        <ele>1811.3</ele>
        <time>2008-04-13T10:15:57Z</time>
      </trkpt>
      <trkpt lat="42.96641" lon="-0.74018">
        <ele>1802.1</ele>
        <time>2008-04-13T10:16:01Z</time>
      </trkpt>
      <trkpt lat="42.96661" lon="-0.73993">
        <ele>1798.3</ele>
        <time>2008-04-13T10:16:04Z</time>
      </trkpt>
      <trkpt lat="42.96689" lon="-0.7398">
        <ele>1794</ele>
        <time>2008-04-13T10:16:07Z</time>
      </trkpt>
      <trkpt lat="42.96738" lon="-0.74001">
        <ele>1788.7</ele>
        <time>2008-04-13T10:16:14Z</time>
      </trkpt>
      <trkpt lat="42.96742" lon="-0.73999">
        <ele>1788.7</ele>
        <time>2008-04-13T10:16:15Z</time>
      </trkpt>
      <trkpt lat="42.96757" lon="-0.74003">
        <ele>1781.5</ele>
        <time>2008-04-13T10:18:08Z</time>
      </trkpt>
      <trkpt lat="42.96777" lon="-0.74003">
        <ele>1777.6</ele>
        <time>2008-04-13T10:18:12Z</time>
      </trkpt>
      <trkpt lat="42.96819" lon="-0.7402">
        <ele>1772.3</ele>
        <time>2008-04-13T10:18:18Z</time>
      </trkpt>
      <trkpt lat="42.96826" lon="-0.74035">
        <ele>1774.3</ele>
        <time>2008-04-13T10:18:46Z</time>
      </trkpt>
      <trkpt lat="42.96832" lon="-0.74029">
        <ele>1776.7</ele>
        <time>2008-04-13T10:19:42Z</time>
      </trkpt>
      <trkpt lat="42.96856" lon="-0.74027">
        <ele>1770.9</ele>
        <time>2008-04-13T10:21:15Z</time>
      </trkpt>
      <trkpt lat="42.96865" lon="-0.74031">
        <ele>1767</ele>
        <time>2008-04-13T10:21:18Z</time>
      </trkpt>
      <trkpt lat="42.96875" lon="-0.74033">
        <ele>1762.7</ele>
        <time>2008-04-13T10:21:21Z</time>
      </trkpt>
      <trkpt lat="42.96899" lon="-0.74046">
        <ele>1756.9</ele>
        <time>2008-04-13T10:21:24Z</time>
      </trkpt>
      <trkpt lat="42.96905" lon="-0.74053">
        <ele>1756.9</ele>
        <time>2008-04-13T10:21:25Z</time>
      </trkpt>
      <trkpt lat="42.96944" lon="-0.74055">
        <ele>1755.5</ele>
        <time>2008-04-13T10:21:30Z</time>
      </trkpt>
      <trkpt lat="42.96961" lon="-0.74046">
        <ele>1755</ele>
        <time>2008-04-13T10:21:33Z</time>
      </trkpt>
      <trkpt lat="42.9697" lon="-0.74029">
        <ele>1754.1</ele>
        <time>2008-04-13T10:21:42Z</time>
      </trkpt>
      <trkpt lat="42.96998" lon="-0.7401">
        <ele>1755</ele>
        <time>2008-04-13T10:24:30Z</time>
      </trkpt>
      <trkpt lat="42.97025" lon="-0.73969">
        <ele>1758.9</ele>
        <time>2008-04-13T10:24:57Z</time>
      </trkpt>
      <trkpt lat="42.9703" lon="-0.73965">
        <ele>1757.9</ele>
        <time>2008-04-13T10:25:06Z</time>
      </trkpt>
      <trkpt lat="42.97045" lon="-0.73958">
        <ele>1754.5</ele>
        <time>2008-04-13T10:25:15Z</time>
      </trkpt>
      <trkpt lat="42.97056" lon="-0.73984">
        <ele>1752.1</ele>
        <time>2008-04-13T10:25:25Z</time>
      </trkpt>
      <trkpt lat="42.97062" lon="-0.74008">
        <ele>1749.3</ele>
        <time>2008-04-13T10:25:31Z</time>
      </trkpt>
      <trkpt lat="42.97066" lon="-0.74018">
        <ele>1747.8</ele>
        <time>2008-04-13T10:25:33Z</time>
      </trkpt>
      <trkpt lat="42.97083" lon="-0.74035">
        <ele>1742</ele>
        <time>2008-04-13T10:25:36Z</time>
      </trkpt>
      <trkpt lat="42.97107" lon="-0.74048">
        <ele>1737.2</ele>
        <time>2008-04-13T10:25:39Z</time>
      </trkpt>
      <trkpt lat="42.97148" lon="-0.74048">
        <ele>1734.4</ele>
        <time>2008-04-13T10:25:52Z</time>
      </trkpt>
      <trkpt lat="42.97152" lon="-0.7404">
        <ele>1733.9</ele>
        <time>2008-04-13T10:25:59Z</time>
      </trkpt>
      <trkpt lat="42.97161" lon="-0.74033">
        <ele>1734.8</ele>
        <time>2008-04-13T10:26:38Z</time>
      </trkpt>
      <trkpt lat="42.97191" lon="-0.74033">
        <ele>1731.5</ele>
        <time>2008-04-13T10:26:59Z</time>
      </trkpt>
      <trkpt lat="42.97287" lon="-0.7404">
        <ele>1719</ele>
        <time>2008-04-13T10:27:48Z</time>
      </trkpt>
      <trkpt lat="42.97292" lon="-0.74042">
        <ele>1719</ele>
        <time>2008-04-13T10:27:49Z</time>
      </trkpt>
      <trkpt lat="42.97332" lon="-0.7404">
        <ele>1718.5</ele>
        <time>2008-04-13T10:28:08Z</time>
      </trkpt>
      <trkpt lat="42.97334" lon="-0.74035">
        <ele>1718.5</ele>
        <time>2008-04-13T10:28:20Z</time>
      </trkpt>
      <trkpt lat="42.97334" lon="-0.7405">
        <ele>1715.6</ele>
        <time>2008-04-13T10:28:25Z</time>
      </trkpt>
      <trkpt lat="42.97347" lon="-0.74098">
        <ele>1712.7</ele>
        <time>2008-04-13T10:28:34Z</time>
      </trkpt>
      <trkpt lat="42.97352" lon="-0.7413">
        <ele>1710.3</ele>
        <time>2008-04-13T10:28:38Z</time>
      </trkpt>
      <trkpt lat="42.97358" lon="-0.74209">
        <ele>1703.6</ele>
        <time>2008-04-13T10:28:49Z</time>
      </trkpt>
      <trkpt lat="42.97367" lon="-0.74235">
        <ele>1702.6</ele>
        <time>2008-04-13T10:29:00Z</time>
      </trkpt>
      <trkpt lat="42.97371" lon="-0.7422">
        <ele>1701.2</ele>
        <time>2008-04-13T10:29:34Z</time>
      </trkpt>
      <trkpt lat="42.9738" lon="-0.74229">
        <ele>1703.6</ele>
        <time>2008-04-13T10:31:40Z</time>
      </trkpt>
      <trkpt lat="42.9738" lon="-0.74276">
        <ele>1700.7</ele>
        <time>2008-04-13T10:32:13Z</time>
      </trkpt>
      <trkpt lat="42.97373" lon="-0.74297">
        <ele>1700.7</ele>
        <time>2008-04-13T10:32:29Z</time>
      </trkpt>
      <trkpt lat="42.97377" lon="-0.74327">
        <ele>1702.2</ele>
        <time>2008-04-13T10:32:55Z</time>
      </trkpt>
      <trkpt lat="42.97384" lon="-0.74357">
        <ele>1699.3</ele>
        <time>2008-04-13T10:33:08Z</time>
      </trkpt>
      <trkpt lat="42.97399" lon="-0.74387">
        <ele>1696.9</ele>
        <time>2008-04-13T10:33:21Z</time>
      </trkpt>
      <trkpt lat="42.97416" lon="-0.744">
        <ele>1697.3</ele>
        <time>2008-04-13T10:33:35Z</time>
      </trkpt>
      <trkpt lat="42.97431" lon="-0.74405">
        <ele>1695.4</ele>
        <time>2008-04-13T10:33:51Z</time>
      </trkpt>
      <trkpt lat="42.9744" lon="-0.74396">
        <ele>1693.5</ele>
        <time>2008-04-13T10:34:01Z</time>
      </trkpt>
      <trkpt lat="42.97446" lon="-0.74381">
        <ele>1693</ele>
        <time>2008-04-13T10:34:11Z</time>
      </trkpt>
      <trkpt lat="42.97437" lon="-0.74366">
        <ele>1694.5</ele>
        <time>2008-04-13T10:35:08Z</time>
      </trkpt>
      <trkpt lat="42.97452" lon="-0.74359">
        <ele>1691.1</ele>
        <time>2008-04-13T10:35:40Z</time>
      </trkpt>
      <trkpt lat="42.97459" lon="-0.74353">
        <ele>1694.5</ele>
        <time>2008-04-13T10:36:32Z</time>
      </trkpt>
    </trkseg>
  </trk>
</gpx>